Vail Mills, New York
Current Conditions -  °F | °C
As of 3:15 PM on Thursday 18 Dec 2014 (Local Time) from KNY0 Reporting Station
Overcast Overcast  
Wind Chill: 19°   Ceiling: 1500
Heat Index: 31°   Visibility: 10mi
Dew Point: 25°   Wind: 17mph
Humidity: 80%   Direction: 270°W
Pressure: 29.89"   Gusts: 24mph
Location:  43.0744°N, 74.1473°W
Report Text: KNY0 182015Z AUTO 27015G21KT 10SM OVC015 M01/M04 A2989 RMK AO2 T10071037
Loading
Personal Weather Stations






























Interactive Weather Map New forecast layout! Learn more

10-Day Weather Forecast

Advertisements
Track Severe Weather on mobile